sensor_id;sensor_type;location;lat;lon;timestamp;pressure;altitude;pressure_sealevel;temperature;humidity
68941;BME280;55982;51.476;7.552;2024-03-29T00:01:45;97594.63;;;8.97;100.00
68941;BME280;55982;51.476;7.552;2024-03-29T00:04:10;97589.41;;;8.97;100.00
68941;BME280;55982;51.476;7.552;2024-03-29T00:06:36;97583.28;;;8.98;100.00
68941;BME280;55982;51.476;7.552;2024-03-29T00:09:01;97588.66;;;9.09;100.00
68941;BME280;55982;51.476;7.552;2024-03-29T00:11:26;97591.25;;;9.09;100.00
68941;BME280;55982;51.476;7.552;2024-03-29T00:13:52;97589.03;;;9.03;100.00
68941;BME280;55982;51.476;7.552;2024-03-29T00:16:17;97588.13;;;9.04;100.00
68941;BME280;55982;51.476;7.552;2024-03-29T00:18:42;97581.56;;;9.11;100.00
68941;BME280;55982;51.476;7.552;2024-03-29T00:21:07;97581.94;;;9.19;100.00
68941;BME280;55982;51.476;7.552;2024-03-29T00:23:33;97570.13;;;9.14;100.00
68941;BME280;55982;51.476;7.552;2024-03-29T00:25:58;97569.66;;;9.07;100.00
68941;BME280;55982;51.476;7.552;2024-03-29T00:28:23;97573.59;;;9.00;100.00
68941;BME280;55982;51.476;7.552;2024-03-29T00:30:49;97569.41;;;8.98;100.00
68941;BME280;55982;51.476;7.552;2024-03-29T00:33:14;97573.75;;;8.97;100.00
68941;BME280;55982;51.476;7.552;2024-03-29T00:35:39;97551.25;;;8.96;100.00
68941;BME280;55982;51.476;7.552;2024-03-29T00:38:04;97553.34;;;8.77;100.00
68941;BME280;55982;51.476;7.552;2024-03-29T00:40:29;97558.91;;;8.85;100.00
68941;BME280;55982;51.476;7.552;2024-03-29T00:42:55;97526.56;;;8.88;100.00
68941;BME280;55982;51.476;7.552;2024-03-29T00:45:20;97546.41;;;8.90;100.00
68941;BME280;55982;51.476;7.552;2024-03-29T00:47:45;97564.28;;;8.96;100.00
68941;BME280;55982;51.476;7.552;2024-03-29T00:50:10;97557.03;;;8.87;100.00
68941;BME280;55982;51.476;7.552;2024-03-29T00:52:36;97567.66;;;8.84;100.00
68941;BME280;55982;51.476;7.552;2024-03-29T00:55:01;97570.81;;;8.89;100.00
68941;BME280;55982;51.476;7.552;2024-03-29T00:57:27;97577.91;;;8.87;100.00
68941;BME280;55982;51.476;7.552;2024-03-29T00:59:52;97571.56;;;8.77;100.00
68941;BME280;55982;51.476;7.552;2024-03-29T01:02:18;97577.53;;;8.79;100.00
68941;BME280;55982;51.476;7.552;2024-03-29T01:04:43;97580.50;;;8.73;100.00
68941;BME280;55982;51.476;7.552;2024-03-29T01:07:08;97580.50;;;8.73;100.00
68941;BME280;55982;51.476;7.552;2024-03-29T01:09:33;97585.56;;;8.62;100.00
68941;BME280;55982;51.476;7.552;2024-03-29T01:11:59;97576.41;;;8.69;100.00
68941;BME280;55982;51.476;7.552;2024-03-29T01:14:24;97565.31;;;8.80;100.00
68941;BME280;55982;51.476;7.552;2024-03-29T01:16:49;97573.06;;;8.81;100.00
68941;BME280;55982;51.476;7.552;2024-03-29T01:19:14;97576.03;;;8.89;100.00
68941;BME280;55982;51.476;7.552;2024-03-29T01:21:40;97568.38;;;8.86;100.00
68941;BME280;55982;51.476;7.552;2024-03-29T01:24:05;97564.88;;;8.73;100.00
68941;BME280;55982;51.476;7.552;2024-03-29T01:26:30;97569.13;;;8.88;100.00
68941;BME280;55982;51.476;7.552;2024-03-29T01:28:56;97579.56;;;8.88;100.00
68941;BME280;55982;51.476;7.552;2024-03-29T01:31:24;97578.72;;;8.88;100.00
68941;BME280;55982;51.476;7.552;2024-03-29T01:33:49;97580.84;;;8.95;100.00
68941;BME280;55982;51.476;7.552;2024-03-29T01:36:15;97584.41;;;8.94;100.00
68941;BME280;55982;51.476;7.552;2024-03-29T01:38:40;97594.84;;;8.94;100.00
68941;BME280;55982;51.476;7.552;2024-03-29T01:41:05;97589.78;;;8.91;100.00
68941;BME280;55982;51.476;7.552;2024-03-29T01:43:31;97592.97;;;8.96;100.00
68941;BME280;55982;51.476;7.552;2024-03-29T01:45:57;97600.56;;;9.13;100.00
68941;BME280;55982;51.476;7.552;2024-03-29T01:48:22;97590.13;;;9.13;100.00
68941;BME280;55982;51.476;7.552;2024-03-29T01:50:48;97594.25;;;9.03;100.00
68941;BME280;55982;51.476;7.552;2024-03-29T01:53:13;97590.69;;;9.18;100.00
68941;BME280;55982;51.476;7.552;2024-03-29T01:55:39;97586.84;;;9.24;100.00
68941;BME280;55982;51.476;7.552;2024-03-29T01:58:05;97602.97;;;9.16;100.00
68941;BME280;55982;51.476;7.552;2024-03-29T02:00:30;97582.78;;;9.20;100.00
68941;BME280;55982;51.476;7.552;2024-03-29T02:02:56;97585.03;;;9.39;100.00
68941;BME280;55982;51.476;7.552;2024-03-29T02:05:22;97578.81;;;9.41;100.00
68941;BME280;55982;51.476;7.552;2024-03-29T02:07:47;97582.09;;;9.31;100.00
68941;BME280;55982;51.476;7.552;2024-03-29T02:12:40;97564.34;;;9.36;100.00
68941;BME280;55982;51.476;7.552;2024-03-29T02:15:05;97554.91;;;9.47;100.00
68941;BME280;55982;51.476;7.552;2024-03-29T02:17:33;97555.56;;;9.51;100.00
68941;BME280;55982;51.476;7.552;2024-03-29T02:19:59;97547.31;;;9.57;100.00
68941;BME280;55982;51.476;7.552;2024-03-29T02:22:24;97539.06;;;9.63;100.00
68941;BME280;55982;51.476;7.552;2024-03-29T02:24:50;97535.03;;;9.71;100.00
68941;BME280;55982;51.476;7.552;2024-03-29T02:27:16;97528.34;;;9.80;100.00
68941;BME280;55982;51.476;7.552;2024-03-29T02:29:41;97511.84;;;9.67;100.00
68941;BME280;55982;51.476;7.552;2024-03-29T02:32:06;97524.72;;;9.70;100.00
68941;BME280;55982;51.476;7.552;2024-03-29T02:34:32;97530.66;;;9.72;100.00
68941;BME280;55982;51.476;7.552;2024-03-29T02:36:57;97515.00;;;9.72;100.00
68941;BME280;55982;51.476;7.552;2024-03-29T02:39:22;97519.66;;;9.67;100.00
68941;BME280;55982;51.476;7.552;2024-03-29T02:41:47;97517.47;;;9.61;100.00
68941;BME280;55982;51.476;7.552;2024-03-29T02:44:13;97520.41;;;9.69;100.00
68941;BME280;55982;51.476;7.552;2024-03-29T02:46:40;97517.28;;;9.76;100.00
68941;BME280;55982;51.476;7.552;2024-03-29T02:49:06;97525.88;;;9.91;100.00
68941;BME280;55982;51.476;7.552;2024-03-29T02:51:31;97531.16;;;10.16;100.00
68941;BME280;55982;51.476;7.552;2024-03-29T02:53:56;97533.66;;;10.18;100.00
68941;BME280;55982;51.476;7.552;2024-03-29T02:56:21;97548.59;;;10.28;100.00
68941;BME280;55982;51.476;7.552;2024-03-29T02:58:48;97560.41;;;10.34;100.00
68941;BME280;55982;51.476;7.552;2024-03-29T03:01:13;97559.81;;;10.43;100.00
68941;BME280;55982;51.476;7.552;2024-03-29T03:03:39;97547.78;;;10.40;100.00
68941;BME280;55982;51.476;7.552;2024-03-29T03:06:04;97540.56;;;10.44;100.00
68941;BME280;55982;51.476;7.552;2024-03-29T03:08:30;97560.19;;;10.49;100.00
68941;BME280;55982;51.476;7.552;2024-03-29T03:11:04;97563.13;;;10.57;100.00
68941;BME280;55982;51.476;7.552;2024-03-29T03:13:30;97561.31;;;10.70;100.00
68941;BME280;55982;51.476;7.552;2024-03-29T03:15:55;97557.47;;;10.63;100.00
68941;BME280;55982;51.476;7.552;2024-03-29T03:18:20;97569.41;;;10.67;100.00
68941;BME280;55982;51.476;7.552;2024-03-29T03:20:55;97558.94;;;10.67;100.00
68941;BME280;55982;51.476;7.552;2024-03-29T03:23:22;97561.03;;;10.62;100.00
68941;BME280;55982;51.476;7.552;2024-03-29T03:25:55;97546.94;;;10.52;100.00
68941;BME280;55982;51.476;7.552;2024-03-29T03:28:20;97561.88;;;10.50;100.00
68941;BME280;55982;51.476;7.552;2024-03-29T03:30:46;97556.66;;;10.25;100.00
68941;BME280;55982;51.476;7.552;2024-03-29T03:33:11;97558.94;;;10.17;100.00
68941;BME280;55982;51.476;7.552;2024-03-29T03:35:36;97545.25;;;10.13;100.00
68941;BME280;55982;51.476;7.552;2024-03-29T03:38:02;97538.84;;;10.05;100.00
68941;BME280;55982;51.476;7.552;2024-03-29T03:40:27;97548.03;;;9.98;100.00
68941;BME280;55982;51.476;7.552;2024-03-29T03:42:52;97540.09;;;9.87;100.00
68941;BME280;55982;51.476;7.552;2024-03-29T03:45:17;97544.03;;;9.80;100.00
68941;BME280;55982;51.476;7.552;2024-03-29T03:47:43;97527.31;;;9.70;100.00
68941;BME280;55982;51.476;7.552;2024-03-29T03:50:08;97541.28;;;9.69;100.00
68941;BME280;55982;51.476;7.552;2024-03-29T03:52:33;97542.75;;;9.73;100.00
68941;BME280;55982;51.476;7.552;2024-03-29T03:54:58;97547.34;;;9.69;100.00
68941;BME280;55982;51.476;7.552;2024-03-29T03:57:24;97543.91;;;9.69;100.00
68941;BME280;55982;51.476;7.552;2024-03-29T03:59:49;97550.25;;;9.65;100.00
68941;BME280;55982;51.476;7.552;2024-03-29T04:02:14;97553.81;;;9.64;100.00
68941;BME280;55982;51.476;7.552;2024-03-29T04:04:40;97555.63;;;9.49;100.00
68941;BME280;55982;51.476;7.552;2024-03-29T04:07:05;97553.34;;;9.45;100.00
68941;BME280;55982;51.476;7.552;2024-03-29T04:09:30;97563.97;;;9.42;100.00
68941;BME280;55982;51.476;7.552;2024-03-29T04:11:55;97560.22;;;9.46;100.00
68941;BME280;55982;51.476;7.552;2024-03-29T04:14:21;97547.88;;;9.35;100.00
68941;BME280;55982;51.476;7.552;2024-03-29T04:16:46;97543.06;;;9.29;100.00
68941;BME280;55982;51.476;7.552;2024-03-29T04:19:11;97546.16;;;9.21;100.00
68941;BME280;55982;51.476;7.552;2024-03-29T04:21:37;97549.88;;;9.17;100.00
68941;BME280;55982;51.476;7.552;2024-03-29T04:24:02;97545.69;;;9.15;100.00
68941;BME280;55982;51.476;7.552;2024-03-29T04:26:27;97562.44;;;9.25;100.00
68941;BME280;55982;51.476;7.552;2024-03-29T04:28:52;97557.50;;;9.20;100.00
68941;BME280;55982;51.476;7.552;2024-03-29T04:31:18;97552.41;;;9.19;100.00
68941;BME280;55982;51.476;7.552;2024-03-29T04:33:43;97549.28;;;9.27;100.00
68941;BME280;55982;51.476;7.552;2024-03-29T04:36:08;97548.63;;;9.10;100.00
68941;BME280;55982;51.476;7.552;2024-03-29T04:38:33;97550.28;;;9.11;100.00
68941;BME280;55982;51.476;7.552;2024-03-29T04:40:59;97551.56;;;9.18;100.00
68941;BME280;55982;51.476;7.552;2024-03-29T04:43:25;97555.28;;;9.14;100.00
68941;BME280;55982;51.476;7.552;2024-03-29T04:45:51;97555.69;;;9.08;100.00
68941;BME280;55982;51.476;7.552;2024-03-29T04:50:49;97550.88;;;9.02;100.00
68941;BME280;55982;51.476;7.552;2024-03-29T04:53:14;97553.97;;;8.95;100.00
68941;BME280;55982;51.476;7.552;2024-03-29T04:55:39;97554.06;;;8.79;100.00
68941;BME280;55982;51.476;7.552;2024-03-29T05:05:20;97546.34;;;8.78;100.00
68941;BME280;55982;51.476;7.552;2024-03-29T05:07:45;97535.47;;;8.71;100.00
68941;BME280;55982;51.476;7.552;2024-03-29T05:12:38;97541.31;;;8.75;100.00
68941;BME280;55982;51.476;7.552;2024-03-29T05:15:03;97544.59;;;8.64;100.00
68941;BME280;55982;51.476;7.552;2024-03-29T05:17:28;97549.88;;;8.77;100.00
68941;BME280;55982;51.476;7.552;2024-03-29T05:19:54;97554.34;;;8.61;100.00
68941;BME280;55982;51.476;7.552;2024-03-29T05:22:19;97548.97;;;8.64;100.00
68941;BME280;55982;51.476;7.552;2024-03-29T05:24:44;97531.75;;;8.75;100.00
68941;BME280;55982;51.476;7.552;2024-03-29T05:27:11;97532.66;;;8.74;100.00
68941;BME280;55982;51.476;7.552;2024-03-29T05:29:36;97536.94;;;8.75;100.00
68941;BME280;55982;51.476;7.552;2024-03-29T05:32:01;97521.31;;;8.75;100.00
68941;BME280;55982;51.476;7.552;2024-03-29T05:34:26;97525.41;;;8.65;100.00
68941;BME280;55982;51.476;7.552;2024-03-29T05:36:51;97531.53;;;8.78;100.00
68941;BME280;55982;51.476;7.552;2024-03-29T05:39:17;97541.97;;;8.78;100.00
68941;BME280;55982;51.476;7.552;2024-03-29T05:41:43;97536.66;;;8.80;100.00
68941;BME280;55982;51.476;7.552;2024-03-29T05:44:09;97521.69;;;8.83;100.00
68941;BME280;55982;51.476;7.552;2024-03-29T05:46:34;97529.88;;;8.77;100.00
68941;BME280;55982;51.476;7.552;2024-03-29T05:48:59;97521.88;;;8.66;100.00
68941;BME280;55982;51.476;7.552;2024-03-29T05:51:24;97509.94;;;8.76;100.00
68941;BME280;55982;51.476;7.552;2024-03-29T05:53:49;97513.50;;;8.61;100.00
68941;BME280;55982;51.476;7.552;2024-03-29T05:56:15;97510.16;;;8.59;100.00
68941;BME280;55982;51.476;7.552;2024-03-29T05:58:40;97512.59;;;8.62;100.00
68941;BME280;55982;51.476;7.552;2024-03-29T06:01:05;97514.63;;;8.71;100.00
68941;BME280;55982;51.476;7.552;2024-03-29T06:03:31;97515.34;;;8.73;100.00
68941;BME280;55982;51.476;7.552;2024-03-29T06:08:23;97509.59;;;8.68;100.00
68941;BME280;55982;51.476;7.552;2024-03-29T06:10:50;97504.19;;;8.71;100.00
68941;BME280;55982;51.476;7.552;2024-03-29T06:13:17;97492.63;;;8.75;100.00
68941;BME280;55982;51.476;7.552;2024-03-29T06:15:51;97488.09;;;8.65;100.00
68941;BME280;55982;51.476;7.552;2024-03-29T06:18:31;97500.19;;;8.66;100.00
68941;BME280;55982;51.476;7.552;2024-03-29T06:20:57;97495.41;;;8.72;100.00
68941;BME280;55982;51.476;7.552;2024-03-29T06:23:22;97495.00;;;8.92;100.00
68941;BME280;55982;51.476;7.552;2024-03-29T06:25:47;97494.41;;;9.01;100.00
68941;BME280;55982;51.476;7.552;2024-03-29T06:28:12;97474.69;;;8.97;100.00
68941;BME280;55982;51.476;7.552;2024-03-29T06:30:38;97470.22;;;8.99;100.00
68941;BME280;55982;51.476;7.552;2024-03-29T06:33:03;97476.38;;;8.98;100.00
68941;BME280;55982;51.476;7.552;2024-03-29T06:35:28;97480.84;;;8.96;100.00
68941;BME280;55982;51.476;7.552;2024-03-29T06:37:54;97482.25;;;9.14;100.00
68941;BME280;55982;51.476;7.552;2024-03-29T06:40:19;97481.47;;;9.27;100.00
68941;BME280;55982;51.476;7.552;2024-03-29T06:42:44;97468.25;;;9.30;100.00
68941;BME280;55982;51.476;7.552;2024-03-29T06:45:10;97500.94;;;9.48;100.00
68941;BME280;55982;51.476;7.552;2024-03-29T06:47:35;97477.50;;;9.34;100.00
68941;BME280;55982;51.476;7.552;2024-03-29T06:50:00;97464.25;;;9.24;100.00
68941;BME280;55982;51.476;7.552;2024-03-29T06:52:26;97469.16;;;9.29;100.00
68941;BME280;55982;51.476;7.552;2024-03-29T06:57:16;97481.53;;;9.39;100.00
68941;BME280;55982;51.476;7.552;2024-03-29T06:59:46;97481.75;;;9.49;100.00
68941;BME280;55982;51.476;7.552;2024-03-29T07:02:11;97467.97;;;9.47;100.00
68941;BME280;55982;51.476;7.552;2024-03-29T07:04:36;97459.84;;;9.64;100.00
68941;BME280;55982;51.476;7.552;2024-03-29T07:07:02;97451.72;;;9.81;100.00
68941;BME280;55982;51.476;7.552;2024-03-29T07:09:27;97472.19;;;9.87;100.00
68941;BME280;55982;51.476;7.552;2024-03-29T07:11:52;97471.66;;;10.07;100.00
68941;BME280;55982;51.476;7.552;2024-03-29T07:14:19;97479.84;;;10.15;100.00
68941;BME280;55982;51.476;7.552;2024-03-29T07:16:45;97483.41;;;10.14;100.00
68941;BME280;55982;51.476;7.552;2024-03-29T07:19:13;97499.38;;;10.22;100.00
68941;BME280;55982;51.476;7.552;2024-03-29T07:21:39;97495.19;;;10.45;100.00
68941;BME280;55982;51.476;7.552;2024-03-29T07:24:05;97485.34;;;10.48;100.00
68941;BME280;55982;51.476;7.552;2024-03-29T07:26:31;97492.84;;;10.65;100.00
68941;BME280;55982;51.476;7.552;2024-03-29T07:28:56;97490.38;;;10.87;100.00
68941;BME280;55982;51.476;7.552;2024-03-29T07:31:21;97482.53;;;10.87;100.00
68941;BME280;55982;51.476;7.552;2024-03-29T07:33:47;97493.56;;;11.03;100.00
68941;BME280;55982;51.476;7.552;2024-03-29T07:36:12;97473.69;;;11.25;100.00
68941;BME280;55982;51.476;7.552;2024-03-29T07:38:38;97483.88;;;11.40;100.00
68941;BME280;55982;51.476;7.552;2024-03-29T07:41:03;97484.81;;;11.39;100.00
68941;BME280;55982;51.476;7.552;2024-03-29T07:43:37;97493.47;;;11.29;100.00
68941;BME280;55982;51.476;7.552;2024-03-29T07:46:02;97502.00;;;11.20;100.00
68941;BME280;55982;51.476;7.552;2024-03-29T07:48:27;97508.16;;;11.42;100.00
68941;BME280;55982;51.476;7.552;2024-03-29T07:50:53;97533.81;;;11.37;100.00
68941;BME280;55982;51.476;7.552;2024-03-29T07:53:18;97517.47;;;11.46;100.00
68941;BME280;55982;51.476;7.552;2024-03-29T07:55:43;97523.66;;;11.69;100.00
68941;BME280;55982;51.476;7.552;2024-03-29T08:00:34;97533.34;;;11.56;100.00
68941;BME280;55982;51.476;7.552;2024-03-29T08:03:00;97538.22;;;11.84;100.00
68941;BME280;55982;51.476;7.552;2024-03-29T08:05:25;97518.09;;;11.84;100.00
68941;BME280;55982;51.476;7.552;2024-03-29T08:07:51;97544.16;;;11.75;100.00
68941;BME280;55982;51.476;7.552;2024-03-29T08:10:16;97551.03;;;11.76;100.00
68941;BME280;55982;51.476;7.552;2024-03-29T08:12:41;97547.97;;;11.82;100.00
68941;BME280;55982;51.476;7.552;2024-03-29T08:15:06;97553.00;;;11.85;100.00
68941;BME280;55982;51.476;7.552;2024-03-29T08:17:33;97551.84;;;11.89;100.00
68941;BME280;55982;51.476;7.552;2024-03-29T08:19:58;97540.66;;;11.98;100.00
68941;BME280;55982;51.476;7.552;2024-03-29T08:22:26;97544.50;;;12.16;100.00
68941;BME280;55982;51.476;7.552;2024-03-29T08:24:53;97536.78;;;12.26;100.00
68941;BME280;55982;51.476;7.552;2024-03-29T08:27:18;97536.69;;;12.38;100.00
68941;BME280;55982;51.476;7.552;2024-03-29T08:29:44;97542.53;;;12.53;100.00
68941;BME280;55982;51.476;7.552;2024-03-29T08:32:09;97534.56;;;12.54;100.00
68941;BME280;55982;51.476;7.552;2024-03-29T08:34:36;97541.84;;;12.62;100.00
68941;BME280;55982;51.476;7.552;2024-03-29T08:37:01;97538.38;;;12.50;100.00
68941;BME280;55982;51.476;7.552;2024-03-29T08:39:28;97527.38;;;12.34;100.00
68941;BME280;55982;51.476;7.552;2024-03-29T08:41:53;97560.75;;;12.43;100.00
68941;BME280;55982;51.476;7.552;2024-03-29T08:44:18;97537.41;;;12.51;100.00
68941;BME280;55982;51.476;7.552;2024-03-29T08:46:44;97551.69;;;12.58;100.00
68941;BME280;55982;51.476;7.552;2024-03-29T08:49:09;97541.47;;;12.55;100.00
68941;BME280;55982;51.476;7.552;2024-03-29T08:51:34;97537.88;;;12.78;100.00
68941;BME280;55982;51.476;7.552;2024-03-29T08:53:59;97539.53;;;13.02;100.00
68941;BME280;55982;51.476;7.552;2024-03-29T08:56:29;97538.81;;;13.11;100.00
68941;BME280;55982;51.476;7.552;2024-03-29T08:58:54;97534.06;;;13.05;100.00
68941;BME280;55982;51.476;7.552;2024-03-29T09:01:20;97539.50;;;13.24;100.00
68941;BME280;55982;51.476;7.552;2024-03-29T09:03:45;97549.78;;;13.27;100.00
68941;BME280;55982;51.476;7.552;2024-03-29T09:06:10;97539.03;;;13.30;100.00
68941;BME280;55982;51.476;7.552;2024-03-29T09:08:35;97540.72;;;13.31;100.00
68941;BME280;55982;51.476;7.552;2024-03-29T09:11:02;97554.75;;;13.52;100.00
68941;BME280;55982;51.476;7.552;2024-03-29T09:13:28;97559.19;;;13.72;100.00
68941;BME280;55982;51.476;7.552;2024-03-29T09:15:53;97559.22;;;13.61;100.00
68941;BME280;55982;51.476;7.552;2024-03-29T09:18:19;97562.63;;;13.41;100.00
68941;BME280;55982;51.476;7.552;2024-03-29T09:21:00;97569.53;;;13.53;100.00
68941;BME280;55982;51.476;7.552;2024-03-29T09:23:26;97570.22;;;13.55;100.00
68941;BME280;55982;51.476;7.552;2024-03-29T09:25:55;97566.56;;;13.78;100.00
68941;BME280;55982;51.476;7.552;2024-03-29T09:28:24;97568.78;;;14.14;100.00
68941;BME280;55982;51.476;7.552;2024-03-29T09:30:50;97566.28;;;14.13;100.00
68941;BME280;55982;51.476;7.552;2024-03-29T09:33:15;97564.19;;;14.27;100.00
68941;BME280;55982;51.476;7.552;2024-03-29T09:35:40;97571.63;;;14.22;100.00
68941;BME280;55982;51.476;7.552;2024-03-29T09:38:05;97580.72;;;14.18;100.00
68941;BME280;55982;51.476;7.552;2024-03-29T09:40:31;97567.31;;;14.01;100.00
68941;BME280;55982;51.476;7.552;2024-03-29T09:45:24;97556.78;;;14.01;100.00
68941;BME280;55982;51.476;7.552;2024-03-29T09:47:49;97564.50;;;14.13;100.00
68941;BME280;55982;51.476;7.552;2024-03-29T09:50:16;97561.09;;;14.22;100.00
68941;BME280;55982;51.476;7.552;2024-03-29T09:52:41;97562.34;;;14.39;100.00
68941;BME280;55982;51.476;7.552;2024-03-29T09:57:32;97570.03;;;14.51;100.00
68941;BME280;55982;51.476;7.552;2024-03-29T09:59:57;97573.34;;;15.14;100.00
68941;BME280;55982;51.476;7.552;2024-03-29T10:02:24;97577.13;;;15.21;100.00
68941;BME280;55982;51.476;7.552;2024-03-29T10:04:51;97585.28;;;15.48;100.00
68941;BME280;55982;51.476;7.552;2024-03-29T10:07:18;97588.38;;;15.72;100.00
68941;BME280;55982;51.476;7.552;2024-03-29T10:09:43;97584.06;;;15.71;100.00
68941;BME280;55982;51.476;7.552;2024-03-29T10:12:11;97573.09;;;15.56;100.00
68941;BME280;55982;51.476;7.552;2024-03-29T10:14:44;97574.78;;;15.77;100.00
68941;BME280;55982;51.476;7.552;2024-03-29T10:17:12;97589.78;;;15.95;100.00
68941;BME280;55982;51.476;7.552;2024-03-29T10:19:37;97589.50;;;16.08;100.00
68941;BME280;55982;51.476;7.552;2024-03-29T10:22:08;97589.59;;;15.68;100.00
68941;BME280;55982;51.476;7.552;2024-03-29T10:24:34;97604.47;;;15.69;100.00
68941;BME280;55982;51.476;7.552;2024-03-29T10:26:59;97594.44;;;15.44;100.00
68941;BME280;55982;51.476;7.552;2024-03-29T10:29:28;97609.53;;;15.42;100.00
68941;BME280;55982;51.476;7.552;2024-03-29T10:31:54;97609.34;;;15.34;100.00
68941;BME280;55982;51.476;7.552;2024-03-29T10:34:20;97602.66;;;15.79;100.00
68941;BME280;55982;51.476;7.552;2024-03-29T10:36:46;97604.72;;;15.66;100.00
68941;BME280;55982;51.476;7.552;2024-03-29T10:39:12;97588.38;;;15.91;100.00
68941;BME280;55982;51.476;7.552;2024-03-29T10:41:40;97600.63;;;16.11;100.00
68941;BME280;55982;51.476;7.552;2024-03-29T10:44:06;97605.03;;;15.92;100.00
68941;BME280;55982;51.476;7.552;2024-03-29T10:46:34;97613.63;;;15.84;100.00
68941;BME280;55982;51.476;7.552;2024-03-29T10:48:59;97603.09;;;16.22;100.00
68941;BME280;55982;51.476;7.552;2024-03-29T10:51:25;97618.63;;;16.44;100.00
68941;BME280;55982;51.476;7.552;2024-03-29T10:53:51;97611.69;;;16.43;100.00
68941;BME280;55982;51.476;7.552;2024-03-29T10:56:17;97616.56;;;16.58;100.00
68941;BME280;55982;51.476;7.552;2024-03-29T10:58:46;97622.25;;;16.24;100.00
68941;BME280;55982;51.476;7.552;2024-03-29T11:01:15;97612.56;;;16.15;100.00
68941;BME280;55982;51.476;7.552;2024-03-29T11:03:44;97604.75;;;16.14;100.00
68941;BME280;55982;51.476;7.552;2024-03-29T11:06:10;97602.78;;;16.64;100.00
68941;BME280;55982;51.476;7.552;2024-03-29T11:08:38;97598.59;;;17.17;100.00
68941;BME280;55982;51.476;7.552;2024-03-29T11:11:06;97599.47;;;17.35;100.00
68941;BME280;55982;51.476;7.552;2024-03-29T11:16:16;97603.09;;;17.34;100.00
68941;BME280;55982;51.476;7.552;2024-03-29T11:18:43;97596.06;;;17.25;100.00
68941;BME280;55982;51.476;7.552;2024-03-29T11:21:09;97607.81;;;17.85;100.00
68941;BME280;55982;51.476;7.552;2024-03-29T11:23:36;97599.81;;;17.22;100.00
68941;BME280;55982;51.476;7.552;2024-03-29T11:26:01;97595.38;;;17.23;100.00
68941;BME280;55982;51.476;7.552;2024-03-29T11:35:56;97604.69;;;17.54;100.00
68941;BME280;55982;51.476;7.552;2024-03-29T11:38:22;97593.91;;;17.65;100.00
68941;BME280;55982;51.476;7.552;2024-03-29T11:41:10;97606.75;;;17.60;100.00
68941;BME280;55982;51.476;7.552;2024-03-29T11:43:33;97607.69;;;17.69;100.00
68941;BME280;55982;51.476;7.552;2024-03-29T11:45:59;97621.50;;;17.26;100.00
68941;BME280;55982;51.476;7.552;2024-03-29T11:48:26;97625.28;;;17.14;100.00
68941;BME280;55982;51.476;7.552;2024-03-29T11:50:52;97627.69;;;17.07;100.00
68941;BME280;55982;51.476;7.552;2024-03-29T11:53:18;97621.28;;;17.10;100.00
68941;BME280;55982;51.476;7.552;2024-03-29T11:55:43;97622.81;;;16.57;100.00
68941;BME280;55982;51.476;7.552;2024-03-29T11:58:09;97620.75;;;16.97;100.00
68941;BME280;55982;51.476;7.552;2024-03-29T12:00:34;97619.69;;;16.90;100.00
68941;BME280;55982;51.476;7.552;2024-03-29T12:02:59;97600.19;;;17.00;100.00
68941;BME280;55982;51.476;7.552;2024-03-29T12:05:24;97600.75;;;17.58;100.00
68941;BME280;55982;51.476;7.552;2024-03-29T12:07:50;97601.88;;;18.00;100.00
68941;BME280;55982;51.476;7.552;2024-03-29T12:10:15;97622.75;;;18.03;100.00
68941;BME280;55982;51.476;7.552;2024-03-29T12:12:42;97634.78;;;17.44;100.00
68941;BME280;55982;51.476;7.552;2024-03-29T12:15:08;97649.97;;;16.95;100.00
68941;BME280;55982;51.476;7.552;2024-03-29T12:17:34;97670.00;;;16.21;100.00
68941;BME280;55982;51.476;7.552;2024-03-29T12:19:59;97660.53;;;15.81;100.00
68941;BME280;55982;51.476;7.552;2024-03-29T12:22:30;97685.56;;;15.56;100.00
68941;BME280;55982;51.476;7.552;2024-03-29T12:24:56;97671.47;;;15.36;100.00
68941;BME280;55982;51.476;7.552;2024-03-29T12:27:22;97683.53;;;15.39;100.00
68941;BME280;55982;51.476;7.552;2024-03-29T12:29:49;97693.44;;;15.46;100.00
68941;BME280;55982;51.476;7.552;2024-03-29T12:32:18;97684.03;;;15.53;100.00
68941;BME280;55982;51.476;7.552;2024-03-29T12:34:43;97687.19;;;15.87;100.00
68941;BME280;55982;51.476;7.552;2024-03-29T12:37:09;97699.16;;;16.01;100.00
68941;BME280;55982;51.476;7.552;2024-03-29T12:39:35;97703.22;;;15.65;100.00
68941;BME280;55982;51.476;7.552;2024-03-29T12:42:02;97709.56;;;15.53;100.00
68941;BME280;55982;51.476;7.552;2024-03-29T12:44:28;97706.16;;;15.11;100.00
68941;BME280;55982;51.476;7.552;2024-03-29T12:46:55;97701.16;;;14.67;100.00
68941;BME280;55982;51.476;7.552;2024-03-29T12:49:23;97700.44;;;14.33;100.00
68941;BME280;55982;51.476;7.552;2024-03-29T12:51:49;97715.72;;;14.08;100.00
68941;BME280;55982;51.476;7.552;2024-03-29T12:56:39;97727.09;;;13.64;100.00
68941;BME280;55982;51.476;7.552;2024-03-29T12:59:07;97727.25;;;13.62;100.00
68941;BME280;55982;51.476;7.552;2024-03-29T13:01:32;97729.75;;;13.53;100.00
68941;BME280;55982;51.476;7.552;2024-03-29T13:03:57;97740.03;;;13.56;100.00
68941;BME280;55982;51.476;7.552;2024-03-29T13:06:23;97728.31;;;13.49;100.00
68941;BME280;55982;51.476;7.552;2024-03-29T13:08:48;97743.13;;;13.61;100.00
68941;BME280;55982;51.476;7.552;2024-03-29T13:11:14;97740.84;;;13.56;100.00
68941;BME280;55982;51.476;7.552;2024-03-29T13:13:40;97753.38;;;13.64;100.00
68941;BME280;55982;51.476;7.552;2024-03-29T13:16:05;97752.69;;;13.73;100.00
68941;BME280;55982;51.476;7.552;2024-03-29T13:18:31;97747.16;;;13.87;100.00
68941;BME280;55982;51.476;7.552;2024-03-29T13:20:56;97744.88;;;13.94;100.00
68941;BME280;55982;51.476;7.552;2024-03-29T13:23:24;97729.22;;;14.03;100.00
68941;BME280;55982;51.476;7.552;2024-03-29T13:25:50;97716.69;;;13.96;100.00
68941;BME280;55982;51.476;7.552;2024-03-29T13:28:18;97737.41;;;14.21;100.00